TAF and METAR

METAR for El Alto International Airport

SLLP 280400Z VRB02KT 9999 FEW012 SCT200 04/M07 Q1035
Report created 28. okt 05:00
wind 2 knots from various directions visibility > 10km some clouds (~25% cover) at 1200 feet scattered clouds (~50% cover) at 20000 feet Temperature 4° with dewpoint at -7° (Humidity 44.49%) Pressure 1035 hPa
No TAF available for El Alto International Airport
El Alto International Airport in Bolivia at 4014m

Latest 5 airports